createdAt,value
2019-02-28T00:00:52.813Z,-0.50
2019-02-28T00:03:21.649Z,-0.60
2019-02-28T00:05:50.876Z,-0.60
2019-02-28T00:08:19.810Z,-0.60
2019-02-28T00:10:48.610Z,-0.60
2019-02-28T00:13:21.430Z,-0.60
2019-02-28T00:15:47.923Z,-0.60
2019-02-28T00:18:17.000Z,-0.60
2019-02-28T00:20:46.226Z,-0.60
2019-02-28T00:23:15.065Z,-0.70
2019-02-28T00:25:43.845Z,-0.70
2019-02-28T00:28:12.690Z,-0.70
2019-02-28T00:30:41.603Z,-0.70
2019-02-28T00:33:10.497Z,-0.70
2019-02-28T00:35:39.345Z,-0.80
2019-02-28T00:38:08.198Z,-0.80
2019-02-28T00:40:38.460Z,-0.80
2019-02-28T00:43:07.533Z,-0.90
2019-02-28T00:45:37.319Z,-0.90
2019-02-28T00:48:06.416Z,-0.90
2019-02-28T00:50:35.205Z,-0.90
2019-02-28T00:53:06.539Z,-0.90
2019-02-28T00:55:34.605Z,-0.90
2019-02-28T00:58:03.364Z,-0.90
2019-02-28T01:00:32.493Z,-0.90
2019-02-28T01:03:01.346Z,-0.90
2019-02-28T01:05:30.117Z,-0.90
2019-02-28T01:07:59.320Z,-1.00
2019-02-28T01:10:28.162Z,-1.00
2019-02-28T01:12:56.922Z,-1.00
2019-02-28T01:15:25.778Z,-1.00
2019-02-28T01:17:57.164Z,-1.00
2019-02-28T01:20:25.049Z,-1.10
2019-02-28T01:22:53.805Z,-1.10
2019-02-28T01:25:22.573Z,-1.10
2019-02-28T01:27:52.479Z,-1.10
2019-02-28T01:30:21.882Z,-1.10
2019-02-28T01:32:51.160Z,-1.20
2019-02-28T01:35:20.137Z,-1.20
2019-02-28T01:37:48.889Z,-1.20
2019-02-28T01:40:17.814Z,-1.20
2019-02-28T01:42:47.091Z,-1.30
2019-02-28T01:45:16.347Z,-1.30
2019-02-28T01:47:45.122Z,-1.30
2019-02-28T01:50:14.247Z,-1.30
2019-02-28T01:52:45.943Z,-1.40
2019-02-28T01:55:14.097Z,-1.40
2019-02-28T01:57:44.381Z,-1.40
2019-02-28T02:00:14.515Z,-1.50
2019-02-28T02:02:43.265Z,-1.50
2019-02-28T02:05:12.589Z,-1.50
2019-02-28T02:07:41.503Z,-1.50
2019-02-28T02:10:21.352Z,-1.50
2019-02-28T02:12:50.723Z,-1.50
2019-02-28T02:15:19.626Z,-1.50
2019-02-28T02:17:48.538Z,-1.50
2019-02-28T02:20:17.587Z,-1.60
2019-02-28T02:22:46.449Z,-1.50
2019-02-28T02:25:15.351Z,-1.50
2019-02-28T02:27:44.201Z,-1.60
2019-02-28T02:30:18.483Z,-1.60
2019-02-28T02:32:47.335Z,-1.50
2019-02-28T02:35:16.656Z,-1.60
2019-02-28T02:37:45.507Z,-1.60
2019-02-28T02:40:14.535Z,-1.60
2019-02-28T02:42:48.252Z,-1.60
2019-02-28T02:45:14.262Z,-1.60
2019-02-28T02:47:43.126Z,-1.60
2019-02-28T02:50:13.299Z,-1.70
2019-02-28T02:52:42.164Z,-1.70
2019-02-28T02:55:11.016Z,-1.70
2019-02-28T02:57:39.932Z,-1.70
2019-02-28T03:00:13.807Z,-1.70
2019-02-28T03:02:42.722Z,-1.70
2019-02-28T03:05:11.579Z,-1.70
2019-02-28T03:07:40.345Z,-1.70
2019-02-28T03:10:10.351Z,-1.70
2019-02-28T03:12:39.210Z,-1.70
2019-02-28T03:15:09.804Z,-1.70
2019-02-28T03:17:38.650Z,-1.70
2019-02-28T03:20:08.868Z,-1.80
2019-02-28T03:22:37.741Z,-1.80
2019-02-28T03:25:06.907Z,-1.80
2019-02-28T03:27:35.682Z,-1.80
2019-02-28T03:30:05.298Z,-1.90
2019-02-28T03:32:42.157Z,-1.90
2019-02-28T03:35:05.518Z,-1.90
2019-02-28T03:37:34.626Z,-1.90
2019-02-28T03:40:05.186Z,-1.90
2019-02-28T03:42:34.196Z,-1.90
2019-02-28T03:45:02.969Z,-1.90
2019-02-28T03:47:31.757Z,-1.90
2019-02-28T03:50:00.531Z,-1.90
2019-02-28T03:52:29.660Z,-1.90
2019-02-28T03:55:03.439Z,-1.90
2019-02-28T03:57:29.640Z,-2.00
2019-02-28T03:59:58.675Z,-2.00
2019-02-28T04:02:27.518Z,-2.00
2019-02-28T04:04:56.443Z,-2.00
2019-02-28T04:07:25.298Z,-2.00
2019-02-28T04:09:54.073Z,-2.00
2019-02-28T04:12:23.122Z,-2.00
2019-02-28T04:14:51.886Z,-2.00
2019-02-28T04:17:20.665Z,-2.00
2019-02-28T04:19:49.452Z,-2.10
2019-02-28T04:22:19.652Z,-2.10
2019-02-28T04:24:49.135Z,-2.10
2019-02-28T04:27:17.894Z,-2.10
2019-02-28T04:29:46.678Z,-2.10
2019-02-28T04:32:15.747Z,-2.10
2019-02-28T04:34:45.768Z,-2.10
2019-02-28T04:37:15.614Z,-2.10
2019-02-28T04:39:44.475Z,-2.10
2019-02-28T04:42:13.247Z,-2.20
2019-02-28T04:44:42.306Z,-2.20
2019-02-28T04:47:11.150Z,-2.20
2019-02-28T04:49:40.019Z,-2.20
2019-02-28T04:52:11.810Z,-2.20
2019-02-28T04:54:39.358Z,-2.20
2019-02-28T04:57:08.201Z,-2.20
2019-02-28T04:59:37.031Z,-2.30
2019-02-28T05:02:05.987Z,-2.20
2019-02-28T05:04:36.139Z,-2.20
2019-02-28T05:07:05.623Z,-2.30
2019-02-28T05:09:34.486Z,-2.30
2019-02-28T05:12:05.332Z,-2.30
2019-02-28T05:14:34.153Z,-2.30
2019-02-28T05:17:02.913Z,-2.30
2019-02-28T05:19:32.331Z,-2.30
2019-02-28T05:22:02.343Z,-2.30
2019-02-28T05:24:31.233Z,-2.30
2019-02-28T05:27:01.211Z,-2.30
2019-02-28T05:29:30.326Z,-2.30
2019-02-28T05:32:00.982Z,-2.30
2019-02-28T05:34:29.674Z,-2.40
2019-02-28T05:36:58.479Z,-2.40
2019-02-28T05:39:28.200Z,-2.40
2019-02-28T05:41:57.742Z,-2.40
2019-02-28T05:44:26.806Z,-2.40
2019-02-28T05:46:58.012Z,-2.40
2019-02-28T05:49:26.077Z,-2.50
2019-02-28T05:51:58.806Z,-2.40
2019-02-28T05:54:25.684Z,-2.50
2019-02-28T05:56:54.459Z,-2.50
2019-02-28T05:59:27.224Z,-2.50
2019-02-28T06:01:53.767Z,-2.50
2019-02-28T06:04:22.564Z,-2.50
2019-02-28T06:06:54.655Z,-2.50
2019-02-28T06:09:22.068Z,-2.50
2019-02-28T06:11:51.102Z,-2.50
2019-02-28T06:14:19.881Z,-2.50
2019-02-28T06:16:48.928Z,-2.50
2019-02-28T06:19:17.684Z,-2.50
2019-02-28T06:21:46.511Z,-2.50
2019-02-28T06:24:15.273Z,-2.50
2019-02-28T06:26:44.379Z,-2.50
2019-02-28T06:29:13.146Z,-2.40
2019-02-28T06:31:41.925Z,-2.40
2019-02-28T06:34:10.725Z,-2.40
2019-02-28T06:36:39.552Z,-2.40
2019-02-28T06:39:08.478Z,-2.30
2019-02-28T06:41:39.995Z,-2.30
2019-02-28T06:44:07.759Z,-2.20
2019-02-28T06:46:39.770Z,-2.10
2019-02-28T06:49:07.300Z,-2.00
2019-02-28T06:51:36.077Z,-1.90
2019-02-28T06:54:07.996Z,-1.80
2019-02-28T06:56:35.417Z,-1.70
2019-02-28T06:59:04.929Z,-1.60
2019-02-28T07:01:34.417Z,-1.50
2019-02-28T07:04:03.186Z,-1.40
2019-02-28T07:06:35.760Z,-1.30
2019-02-28T07:09:03.859Z,-1.20
2019-02-28T07:11:33.727Z,-1.10
2019-02-28T07:14:02.498Z,-1.10
2019-02-28T07:16:34.410Z,-1.00
2019-02-28T07:19:01.845Z,-0.80
2019-02-28T07:21:30.953Z,-0.70
2019-02-28T07:24:02.466Z,-0.60
2019-02-28T07:26:30.581Z,-0.50
2019-02-28T07:28:59.364Z,-0.40
2019-02-28T07:31:28.285Z,-0.30
2019-02-28T07:33:57.455Z,-0.20
2019-02-28T07:36:26.313Z,-0.10
2019-02-28T07:38:55.070Z,0.00
2019-02-28T07:41:26.791Z,0.10
2019-02-28T07:43:54.336Z,0.20
2019-02-28T07:46:24.703Z,0.30
2019-02-28T07:48:53.588Z,0.40
2019-02-28T07:51:26.168Z,0.50
2019-02-28T07:53:52.863Z,0.60
2019-02-28T07:56:23.873Z,0.70
2019-02-28T07:58:52.116Z,0.80
2019-02-28T08:01:20.895Z,1.00
2019-02-28T08:03:49.658Z,1.10
2019-02-28T08:06:18.527Z,1.20
2019-02-28T08:08:47.278Z,1.30
2019-02-28T08:11:16.036Z,1.40
2019-02-28T08:13:44.893Z,1.50
2019-02-28T08:16:13.648Z,1.70
2019-02-28T08:18:42.430Z,1.90
2019-02-28T08:21:11.198Z,2.00
2019-02-28T08:23:40.057Z,2.20
2019-02-28T08:26:08.817Z,2.30
2019-02-28T08:28:37.826Z,2.50
2019-02-28T08:31:06.959Z,2.60
2019-02-28T08:33:35.735Z,2.80
2019-02-28T08:36:08.439Z,3.00
2019-02-28T08:38:35.150Z,3.30
2019-02-28T08:41:06.314Z,3.50
2019-02-28T08:43:34.481Z,3.80
2019-02-28T08:46:09.633Z,4.30
2019-02-28T08:48:34.903Z,4.60
2019-02-28T08:51:03.883Z,5.60
2019-02-28T08:53:32.666Z,6.90
2019-02-28T08:56:01.506Z,8.30
2019-02-28T08:58:30.283Z,9.80
2019-02-28T09:00:59.113Z,10.80
2019-02-28T09:03:28.095Z,11.30
2019-02-28T09:05:57.043Z,11.50
2019-02-28T09:08:26.003Z,11.40
2019-02-28T09:10:55.021Z,11.40
2019-02-28T09:13:25.097Z,11.80
2019-02-28T09:15:54.141Z,12.40
2019-02-28T09:18:23.343Z,12.90
2019-02-28T09:20:52.153Z,13.20
2019-02-28T09:23:21.194Z,13.40
2019-02-28T09:25:49.974Z,13.90
2019-02-28T09:28:20.730Z,14.70
2019-02-28T09:30:49.354Z,15.50
2019-02-28T09:33:19.229Z,16.50
2019-02-28T09:35:49.233Z,18.20
2019-02-28T09:38:18.034Z,20.50
2019-02-28T09:40:46.884Z,22.50
2019-02-28T09:43:15.736Z,24.10
2019-02-28T09:45:44.533Z,24.30
2019-02-28T09:48:13.414Z,24.10
2019-02-28T09:50:42.197Z,23.20
2019-02-28T09:53:15.461Z,22.10
2019-02-28T09:55:41.481Z,20.90
2019-02-28T09:58:10.324Z,19.90
2019-02-28T10:00:39.450Z,19.30
2019-02-28T10:03:08.583Z,18.60
2019-02-28T10:05:38.849Z,18.30
2019-02-28T10:08:07.990Z,17.80
2019-02-28T10:10:36.884Z,17.90
2019-02-28T10:13:05.787Z,17.70
2019-02-28T10:15:34.728Z,18.10
2019-02-28T10:18:04.425Z,19.50
2019-02-28T10:20:34.148Z,20.30
2019-02-28T10:23:02.995Z,21.90
2019-02-28T10:25:31.863Z,22.30
2019-02-28T10:28:02.666Z,22.50
2019-02-28T10:30:32.579Z,21.70
2019-02-28T10:33:01.881Z,20.50
2019-02-28T10:35:33.439Z,20.90
2019-02-28T10:38:01.835Z,21.20
2019-02-28T10:40:30.717Z,21.30
2019-02-28T10:42:59.619Z,20.50
2019-02-28T10:45:29.014Z,19.70
2019-02-28T10:48:02.896Z,19.00
2019-02-28T10:50:32.164Z,18.60
2019-02-28T10:53:04.210Z,18.50
2019-02-28T10:55:30.081Z,18.10
2019-02-28T10:57:59.005Z,17.90
2019-02-28T11:00:32.567Z,17.60
2019-02-28T11:03:02.088Z,17.30
2019-02-28T11:05:31.941Z,16.80
2019-02-28T11:08:01.846Z,16.40
2019-02-28T11:10:35.499Z,16.20
2019-02-28T11:13:04.538Z,16.20
2019-02-28T11:15:33.462Z,16.60
2019-02-28T11:18:02.458Z,16.80
2019-02-28T11:20:33.239Z,16.80
2019-02-28T11:23:01.945Z,16.90
2019-02-28T11:25:34.583Z,16.70
2019-02-28T11:28:01.309Z,16.60
2019-02-28T11:30:30.667Z,16.30
2019-02-28T11:33:03.068Z,15.90
2019-02-28T11:35:31.513Z,15.80
2019-02-28T11:38:00.354Z,15.60
2019-02-28T11:40:29.849Z,15.50
2019-02-28T11:43:02.820Z,15.40
2019-02-28T11:45:31.036Z,15.40
2019-02-28T11:48:01.268Z,15.40
2019-02-28T11:50:30.257Z,15.30
2019-02-28T11:53:04.931Z,15.40
2019-02-28T11:55:30.156Z,15.50
2019-02-28T11:57:59.159Z,15.70
2019-02-28T12:00:32.538Z,15.90
2019-02-28T12:03:01.004Z,16.60
2019-02-28T12:05:30.130Z,18.80
2019-02-28T12:07:59.394Z,20.30
2019-02-28T12:10:28.342Z,20.20
2019-02-28T12:12:57.202Z,20.90
2019-02-28T12:15:26.980Z,21.30
2019-02-28T12:17:55.910Z,21.80
2019-02-28T12:20:26.519Z,21.30
2019-02-28T12:22:55.510Z,21.10
2019-02-28T12:25:24.635Z,21.00
2019-02-28T12:27:55.267Z,21.30
2019-02-28T12:30:26.090Z,22.10
2019-02-28T12:32:55.010Z,23.30
2019-02-28T12:35:23.884Z,24.40
2019-02-28T12:37:54.127Z,25.00
2019-02-28T12:40:25.786Z,25.10
2019-02-28T12:42:54.566Z,24.90
2019-02-28T12:45:29.151Z,24.20
2019-02-28T12:47:58.123Z,23.10
2019-02-28T12:50:29.458Z,21.70
2019-02-28T12:52:57.825Z,20.50
2019-02-28T12:55:26.589Z,19.70
2019-02-28T12:57:57.965Z,19.20
2019-02-28T13:00:31.601Z,19.60
2019-02-28T13:03:00.701Z,20.30
2019-02-28T13:05:30.006Z,20.60
2019-02-28T13:07:58.866Z,20.70
2019-02-28T13:10:29.282Z,20.30
2019-02-28T13:13:06.319Z,19.30
2019-02-28T13:15:29.350Z,18.60
2019-02-28T13:17:58.214Z,18.20
2019-02-28T13:20:32.231Z,18.30
2019-02-28T13:22:59.510Z,18.20
2019-02-28T13:25:28.957Z,18.30
2019-02-28T13:27:57.876Z,18.70
2019-02-28T13:30:26.995Z,19.40
2019-02-28T13:32:56.791Z,19.20
2019-02-28T13:35:27.712Z,18.60
2019-02-28T13:37:56.754Z,18.00
2019-02-28T13:40:25.675Z,17.40
2019-02-28T13:42:54.541Z,17.20
2019-02-28T13:45:24.776Z,17.10
2019-02-28T13:48:00.478Z,17.10
2019-02-28T13:50:29.286Z,17.00
2019-02-28T13:53:02.581Z,16.80
2019-02-28T13:55:28.837Z,16.60
2019-02-28T13:57:57.697Z,16.70
2019-02-28T14:00:28.544Z,16.80
2019-02-28T14:02:59.179Z,16.70
2019-02-28T14:05:28.147Z,16.40
2019-02-28T14:07:57.102Z,16.30
2019-02-28T14:10:29.793Z,16.30
2019-02-28T14:12:58.140Z,16.20
2019-02-28T14:15:32.406Z,16.10
2019-02-28T14:18:01.169Z,16.00
2019-02-28T14:20:30.024Z,15.90
2019-02-28T14:22:58.947Z,15.70
2019-02-28T14:25:27.866Z,15.50
2019-02-28T14:28:00.143Z,15.40
2019-02-28T14:30:28.007Z,15.20
2019-02-28T14:32:56.842Z,14.80
2019-02-28T14:35:26.295Z,14.60
2019-02-28T14:37:55.573Z,14.40
2019-02-28T14:40:25.733Z,14.30
2019-02-28T14:42:54.515Z,14.30
2019-02-28T14:45:23.465Z,14.30
2019-02-28T14:47:56.996Z,14.20
2019-02-28T14:50:23.465Z,14.10
2019-02-28T14:52:53.301Z,13.90
2019-02-28T14:55:22.486Z,13.80
2019-02-28T14:57:51.450Z,13.60
2019-02-28T15:00:27.461Z,13.40
2019-02-28T15:02:56.242Z,13.10
2019-02-28T15:05:25.961Z,12.90
2019-02-28T15:07:54.883Z,12.60
2019-02-28T15:10:23.818Z,12.40
2019-02-28T15:12:55.399Z,12.20
2019-02-28T15:15:23.253Z,12.00
2019-02-28T15:17:52.085Z,11.80
2019-02-28T15:20:21.035Z,11.70
2019-02-28T15:22:52.439Z,11.60
2019-02-28T15:25:20.791Z,11.40
2019-02-28T15:27:49.560Z,11.30
2019-02-28T15:30:20.711Z,11.20
2019-02-28T15:32:50.676Z,11.10
2019-02-28T15:35:20.962Z,11.00
2019-02-28T15:37:49.819Z,10.90
2019-02-28T15:40:24.744Z,10.90
2019-02-28T15:42:54.475Z,10.80
2019-02-28T15:45:23.325Z,10.70
2019-02-28T15:47:59.059Z,10.60
2019-02-28T15:50:26.874Z,10.60
2019-02-28T15:52:55.886Z,10.50
2019-02-28T15:55:25.152Z,10.50
2019-02-28T15:57:54.031Z,10.50
2019-02-28T16:00:25.107Z,10.50
2019-02-28T16:02:54.119Z,10.50
2019-02-28T16:05:23.816Z,10.50
2019-02-28T16:07:52.994Z,10.40
2019-02-28T16:10:23.806Z,10.40
2019-02-28T16:12:52.645Z,10.40
2019-02-28T16:15:21.568Z,10.40
2019-02-28T16:17:50.510Z,10.40
2019-02-28T16:20:19.359Z,10.40
2019-02-28T16:22:52.128Z,10.40
2019-02-28T16:25:21.079Z,10.40
2019-02-28T16:27:49.933Z,10.40
2019-02-28T16:30:19.265Z,10.30
2019-02-28T16:32:49.158Z,10.30
2019-02-28T16:35:18.679Z,10.30
2019-02-28T16:37:47.530Z,10.20
2019-02-28T16:40:20.755Z,10.20
2019-02-28T16:42:47.944Z,10.20
2019-02-28T16:45:24.378Z,10.00
2019-02-28T16:47:55.703Z,9.90
2019-02-28T16:50:23.791Z,9.90
2019-02-28T16:52:52.875Z,9.70
2019-02-28T16:55:21.749Z,9.70
2019-02-28T16:57:50.714Z,9.70
2019-02-28T17:00:19.850Z,9.70
2019-02-28T17:02:48.637Z,9.80
2019-02-28T17:05:17.490Z,9.80
2019-02-28T17:07:46.265Z,9.80
2019-02-28T17:10:16.314Z,9.80
2019-02-28T17:13:04.215Z,9.80
2019-02-28T17:15:55.864Z,9.90
2019-02-28T17:18:24.975Z,9.90
2019-02-28T17:20:53.757Z,9.90
2019-02-28T17:23:22.513Z,9.80
2019-02-28T17:25:53.576Z,9.80
2019-02-28T17:28:39.628Z,9.70
2019-02-28T17:31:16.514Z,9.50
2019-02-28T17:33:46.814Z,9.40
2019-02-28T17:36:16.715Z,9.20
2019-02-28T17:38:45.590Z,9.10
2019-02-28T17:41:14.369Z,9.00
2019-02-28T17:44:04.496Z,9.00
2019-02-28T17:46:33.271Z,8.90
2019-02-28T17:49:42.818Z,8.90
2019-02-28T17:52:52.719Z,8.80
2019-02-28T17:56:27.262Z,8.50
2019-02-28T17:59:42.004Z,8.20
2019-02-28T18:02:50.463Z,8.00
2019-02-28T18:05:38.125Z,7.70
2019-02-28T18:09:00.872Z,7.80
2019-02-28T18:12:08.920Z,7.90
2019-02-28T18:15:01.130Z,8.10
2019-02-28T18:17:58.002Z,8.20
2019-02-28T18:20:56.020Z,8.40
2019-02-28T18:23:35.520Z,8.50
2019-02-28T18:26:44.994Z,8.60
2019-02-28T18:29:54.692Z,8.70
2019-02-28T18:32:23.526Z,8.80
2019-02-28T18:34:52.725Z,8.80
2019-02-28T18:37:24.528Z,8.90
2019-02-28T18:39:53.428Z,8.90
2019-02-28T18:42:22.327Z,8.90
2019-02-28T18:44:51.173Z,9.00
2019-02-28T18:47:19.978Z,9.00
2019-02-28T18:49:48.757Z,9.00
2019-02-28T18:52:18.067Z,8.90
2019-02-28T18:54:47.209Z,9.00
2019-02-28T18:57:15.965Z,9.00
2019-02-28T18:59:44.801Z,9.00
2019-02-28T19:02:13.647Z,9.10
2019-02-28T19:04:42.418Z,9.10
2019-02-28T19:07:11.252Z,9.10
2019-02-28T19:09:40.042Z,9.10
2019-02-28T19:12:08.808Z,9.10
2019-02-28T19:14:37.658Z,9.10
2019-02-28T19:17:06.454Z,9.10
2019-02-28T19:19:35.259Z,9.00
2019-02-28T19:22:04.203Z,8.70
2019-02-28T19:24:33.045Z,8.50
2019-02-28T19:27:01.817Z,8.20
2019-02-28T19:29:30.662Z,8.00
2019-02-28T19:31:59.866Z,8.00
2019-02-28T19:34:28.693Z,7.80
2019-02-28T19:36:57.834Z,7.70
2019-02-28T19:39:26.598Z,7.60
2019-02-28T19:41:55.369Z,7.60
2019-02-28T19:44:24.250Z,7.50
2019-02-28T19:46:53.322Z,7.40
2019-02-28T19:49:22.354Z,7.40
2019-02-28T19:51:51.129Z,7.30
2019-02-28T19:54:19.894Z,7.30
2019-02-28T19:56:48.672Z,7.40
2019-02-28T19:59:17.433Z,7.60
2019-02-28T20:01:46.310Z,7.70
2019-02-28T20:04:15.615Z,7.90
2019-02-28T20:06:44.525Z,8.00
2019-02-28T20:09:13.443Z,8.10
2019-02-28T20:11:42.234Z,8.20
2019-02-28T20:14:11.078Z,8.30
2019-02-28T20:16:39.918Z,8.40
2019-02-28T20:19:08.750Z,8.40
2019-02-28T20:21:37.520Z,8.40
2019-02-28T20:24:07.496Z,8.50
2019-02-28T20:26:36.381Z,8.50
2019-02-28T20:29:05.362Z,8.50
2019-02-28T20:31:34.286Z,8.40
2019-02-28T20:34:03.056Z,8.40
2019-02-28T20:36:31.900Z,8.30
2019-02-28T20:39:01.079Z,8.30
2019-02-28T20:41:29.892Z,8.20
2019-02-28T20:43:58.657Z,8.10
2019-02-28T20:46:27.501Z,8.00
2019-02-28T20:48:56.682Z,7.90
2019-02-28T20:51:25.470Z,7.90
2019-02-28T20:53:54.248Z,7.80
2019-02-28T20:56:23.002Z,7.80
2019-02-28T20:58:51.777Z,7.80
2019-02-28T21:01:20.629Z,7.80
2019-02-28T21:03:49.407Z,7.90
2019-02-28T21:06:18.190Z,7.90
2019-02-28T21:08:46.966Z,7.90
2019-02-28T21:11:15.738Z,7.80
2019-02-28T21:13:44.511Z,7.80
2019-02-28T21:16:13.282Z,7.80
2019-02-28T21:18:42.125Z,7.80
2019-02-28T21:21:10.981Z,7.70
2019-02-28T21:23:39.766Z,7.70
2019-02-28T21:26:08.534Z,7.70
2019-02-28T21:28:37.334Z,7.70
2019-02-28T21:31:06.195Z,7.60
2019-02-28T21:33:34.969Z,7.70
2019-02-28T21:36:04.172Z,7.70
2019-02-28T21:38:33.042Z,7.70
2019-02-28T21:41:02.230Z,7.70
2019-02-28T21:43:31.010Z,7.70
2019-02-28T21:45:59.760Z,7.70
2019-02-28T21:48:28.838Z,7.70
2019-02-28T21:50:57.934Z,7.70
2019-02-28T21:53:26.789Z,7.70
2019-02-28T21:55:55.630Z,7.70
2019-02-28T21:58:24.406Z,7.80
2019-02-28T22:00:53.178Z,7.70
2019-02-28T22:03:22.389Z,7.80
2019-02-28T22:05:51.146Z,7.80
2019-02-28T22:08:20.253Z,7.80
2019-02-28T22:10:49.033Z,7.80
2019-02-28T22:13:17.882Z,7.70
2019-02-28T22:15:46.785Z,7.60
2019-02-28T22:18:15.591Z,7.50
2019-02-28T22:20:44.341Z,7.50
2019-02-28T22:23:13.114Z,7.50
2019-02-28T22:25:41.901Z,7.50
2019-02-28T22:28:10.902Z,7.50
2019-02-28T22:31:01.523Z,7.50
2019-02-28T22:33:49.377Z,7.50
2019-02-28T22:36:22.021Z,7.50
2019-02-28T22:38:50.791Z,7.50
2019-02-28T22:41:19.838Z,7.50
2019-02-28T22:43:48.938Z,7.40
2019-02-28T22:46:17.887Z,7.40
2019-02-28T22:48:46.665Z,7.40
2019-02-28T22:51:15.443Z,7.50
2019-02-28T22:53:44.511Z,7.50
2019-02-28T22:56:13.696Z,7.50
2019-02-28T22:58:42.467Z,7.50
2019-02-28T23:01:14.711Z,7.40
2019-02-28T23:03:43.779Z,7.40
2019-02-28T23:06:12.670Z,7.40
2019-02-28T23:08:41.565Z,7.40
2019-02-28T23:11:10.489Z,7.40
2019-02-28T23:13:39.410Z,7.40
2019-02-28T23:16:08.525Z,7.40
2019-02-28T23:18:37.294Z,7.40
2019-02-28T23:21:06.153Z,7.50
2019-02-28T23:23:34.925Z,7.50
2019-02-28T23:26:09.345Z,7.40
2019-02-28T23:28:40.845Z,7.40
2019-02-28T23:31:33.825Z,7.40
2019-02-28T23:34:06.835Z,7.40
2019-02-28T23:36:35.973Z,7.40
2019-02-28T23:39:06.806Z,7.40
2019-02-28T23:41:35.618Z,7.50
2019-02-28T23:44:04.457Z,7.50
2019-02-28T23:46:33.231Z,7.50
2019-02-28T23:49:02.289Z,7.50
2019-02-28T23:51:31.071Z,7.50
2019-02-28T23:53:59.830Z,7.40
2019-02-28T23:56:28.939Z,7.40
2019-02-28T23:58:57.706Z,7.50
